Emine Anne — TCBX9 — position and weather

sailwx.info

Track history (hours):
 
Tides and Currents Weather Stations Pressure Air Temp Water Temp Dewpoint Dewpoint Depression Visibility Wind Speed Wind Dir Waves Ship Positions

Emine Anne

Last reported at 2015-Jul-24 00:32 UTC. Time now 2015-Jul-29 02:36 UTC.
Position N 40°57' E 029°01'.

Length 69 m; draft 4.5 m.

Type: Cargo ship. MMSI: 271002305.

Date/timePositionNaut miles runAvg speedWind from/ knotsBaromVisibWave heightAir tempDewpointWater temp
2015-Jul-24 00:32N 40°57' E 029°01'7 7.6
2015-Jul-23 23:33N 40°53' E 029°10'1 0.5
2015-Jul-23 22:13N 40°52' E 029°10'0 0.0
2015-Jul-23 21:23N 40°52' E 029°10'0 0.0
2015-Jul-23 20:27N 40°52' E 029°10'0 0.0
2015-Jul-23 19:33N 40°52' E 029°10'0 0.0
2015-Jul-23 18:33N 40°52' E 029°10'5 5.3
2015-Jul-23 17:33N 40°48' E 029°07'8 8.1
2015-Jul-23 16:33N 40°42' E 028°59'9 8.1
2015-Jul-23 15:29N 40°36' E 028°50'16 5.3
2015-Jul-23 12:29N 40°25' E 029°05'28 0.6
2015-Jul-21 13:24N 40°53' E 029°12'0 0.0
2015-Jul-21 12:29N 40°53' E 029°12'0 0.0
2015-Jul-21 11:32N 40°53' E 029°12'0 0.1
2015-Jul-21 10:29N 40°53' E 029°12'0 0.0
2015-Jul-21 09:23N 40°53' E 029°12'0 0.0
2015-Jul-21 08:28N 40°53' E 029°12'0 0.1
2015-Jul-21 07:26N 40°53' E 029°12'0 0.0
2015-Jul-21 06:23N 40°53' E 029°12'6 7.5
2015-Jul-21 05:33N 40°48' E 029°06'9 8.7
2015-Jul-21 04:33N 40°42' E 028°58'9 8.9
2015-Jul-21 03:33N 40°36' E 028°49'14 6.3
2015-Jul-21 01:24N 40°26' E 029°00'4 0.4
2015-Jul-20 15:21N 40°25' E 029°05'0 0.0
2015-Jul-20 13:22N 40°25' E 029°05'0 0.0
2015-Jul-20 06:14N 40°25' E 029°05'0 0.0
2015-Jul-20 03:31N 40°25' E 029°05'0 0.0
2015-Jul-19 23:14N 40°25' E 029°05'0 0.0
2015-Jul-19 22:20N 40°25' E 029°05'0 0.0
2015-Jul-19 21:32N 40°25' E 029°05'0 0.0
2015-Jul-19 19:29N 40°25' E 029°05'0 0.0
2015-Jul-19 17:07N 40°25' E 029°05'0 0.0
2015-Jul-17 16:18N 40°25' E 029°05'0 0.0
2015-Jul-17 09:21N 40°25' E 029°05'0 0.0
2015-Jul-17 08:15N 40°25' E 029°05'0 0.0
2015-Jul-17 06:27N 40°25' E 029°05'0 0.0
2015-Jul-16 05:27N 40°25' E 029°05'0 0.0
2015-Jul-16 04:13N 40°25' E 029°05'0 0.0
2015-Jul-16 03:33N 40°25' E 029°05'0 0.0
2015-Jul-16 02:28N 40°25' E 029°05'  
Track history (hours):
 
Tides and Currents Weather Stations Pressure Air Temp Water Temp Dewpoint Dewpoint Depression Visibility Wind Speed Wind Dir Waves Ship Positions

Emine Anne

Last reported at 2015-Jul-24 00:32 UTC. Time now 2015-Jul-29 02:36 UTC.
Position N 40°57' E 029°01'.

Length 69 m; draft 4.5 m.

Type: Cargo ship. MMSI: 271002305.

Date/timePositionNaut miles runAvg speedWind from/ knotsBaromVisibWave heightAir tempDewpointWater temp
2015-Jul-24 00:32N 40°57' E 029°01'7 7.6
2015-Jul-23 23:33N 40°53' E 029°10'1 0.5
2015-Jul-23 22:13N 40°52' E 029°10'0 0.0
2015-Jul-23 21:23N 40°52' E 029°10'0 0.0
2015-Jul-23 20:27N 40°52' E 029°10'0 0.0
2015-Jul-23 19:33N 40°52' E 029°10'0 0.0
2015-Jul-23 18:33N 40°52' E 029°10'5 5.3
2015-Jul-23 17:33N 40°48' E 029°07'8 8.1
2015-Jul-23 16:33N 40°42' E 028°59'9 8.1
2015-Jul-23 15:29N 40°36' E 028°50'16 5.3
2015-Jul-23 12:29N 40°25' E 029°05'28 0.6
2015-Jul-21 13:24N 40°53' E 029°12'0 0.0
2015-Jul-21 12:29N 40°53' E 029°12'0 0.0
2015-Jul-21 11:32N 40°53' E 029°12'0 0.1
2015-Jul-21 10:29N 40°53' E 029°12'0 0.0
2015-Jul-21 09:23N 40°53' E 029°12'0 0.0
2015-Jul-21 08:28N 40°53' E 029°12'0 0.1
2015-Jul-21 07:26N 40°53' E 029°12'0 0.0
2015-Jul-21 06:23N 40°53' E 029°12'6 7.5
2015-Jul-21 05:33N 40°48' E 029°06'9 8.7
2015-Jul-21 04:33N 40°42' E 028°58'9 8.9
2015-Jul-21 03:33N 40°36' E 028°49'14 6.3
2015-Jul-21 01:24N 40°26' E 029°00'4 0.4
2015-Jul-20 15:21N 40°25' E 029°05'0 0.0
2015-Jul-20 13:22N 40°25' E 029°05'0 0.0
2015-Jul-20 06:14N 40°25' E 029°05'0 0.0
2015-Jul-20 03:31N 40°25' E 029°05'0 0.0
2015-Jul-19 23:14N 40°25' E 029°05'0 0.0
2015-Jul-19 22:20N 40°25' E 029°05'0 0.0
2015-Jul-19 21:32N 40°25' E 029°05'0 0.0
2015-Jul-19 19:29N 40°25' E 029°05'0 0.0
2015-Jul-19 17:07N 40°25' E 029°05'0 0.0
2015-Jul-17 16:18N 40°25' E 029°05'0 0.0
2015-Jul-17 09:21N 40°25' E 029°05'0 0.0
2015-Jul-17 08:15N 40°25' E 029°05'0 0.0
2015-Jul-17 06:27N 40°25' E 029°05'0 0.0
2015-Jul-16 05:27N 40°25' E 029°05'0 0.0
2015-Jul-16 04:13N 40°25' E 029°05'0 0.0
2015-Jul-16 03:33N 40°25' E 029°05'0 0.0
2015-Jul-16 02:28N 40°25' E 029°05'  

Dump ship's entire track history